createdAt,value
2017-10-24T00:00:11.292Z,94.30
2017-10-24T00:02:38.728Z,94.20
2017-10-24T00:05:06.172Z,94.30
2017-10-24T00:07:33.615Z,94.30
2017-10-24T00:10:01.037Z,94.30
2017-10-24T00:12:29.230Z,94.30
2017-10-24T00:14:56.655Z,94.30
2017-10-24T00:17:24.856Z,94.30
2017-10-24T00:19:52.284Z,94.30
2017-10-24T00:22:20.488Z,94.40
2017-10-24T00:24:47.916Z,94.30
2017-10-24T00:27:16.116Z,94.50
2017-10-24T00:29:43.547Z,94.50
2017-10-24T00:32:10.981Z,94.60
2017-10-24T00:34:38.413Z,94.70
2017-10-24T00:37:09.804Z,94.70
2017-10-24T00:39:37.236Z,94.60
2017-10-24T00:42:04.672Z,94.60
2017-10-24T00:44:32.103Z,94.70
2017-10-24T00:46:59.539Z,94.70
2017-10-24T00:49:26.960Z,94.80
2017-10-24T00:51:54.394Z,94.90
2017-10-24T00:54:21.822Z,94.90
2017-10-24T00:56:50.026Z,94.90
2017-10-24T00:59:17.455Z,94.90
2017-10-24T01:01:45.653Z,94.90
2017-10-24T01:04:13.081Z,94.80
2017-10-24T01:06:41.286Z,94.80
2017-10-24T01:09:08.708Z,94.80
2017-10-24T01:11:36.907Z,94.90
2017-10-24T01:14:04.339Z,94.90
2017-10-24T01:16:32.545Z,94.90
2017-10-24T01:18:59.972Z,94.90
2017-10-24T01:21:28.176Z,94.90
2017-10-24T01:23:55.596Z,94.90
2017-10-24T01:26:23.806Z,95.00
2017-10-24T01:28:51.232Z,95.00
2017-10-24T01:31:19.419Z,95.00
2017-10-24T01:33:46.844Z,95.00
2017-10-24T01:36:14.277Z,95.00
2017-10-24T01:38:41.714Z,95.10
2017-10-24T01:41:09.136Z,95.20
2017-10-24T01:43:37.330Z,95.10
2017-10-24T01:46:04.760Z,95.10
2017-10-24T01:48:32.956Z,95.00
2017-10-24T01:51:00.393Z,95.00
2017-10-24T01:53:28.600Z,95.10
2017-10-24T01:55:56.034Z,95.40
2017-10-24T01:58:24.289Z,95.00
2017-10-24T02:00:51.722Z,95.00
2017-10-24T02:03:20.225Z,95.00
2017-10-24T02:05:47.664Z,94.90
2017-10-24T02:08:15.102Z,95.00
2017-10-24T02:10:42.528Z,95.00
2017-10-24T02:13:09.960Z,95.00
2017-10-24T02:15:38.180Z,95.00
2017-10-24T02:18:05.607Z,95.00
2017-10-24T02:20:33.040Z,95.10
2017-10-24T02:23:00.488Z,95.00
2017-10-24T02:25:27.921Z,95.10
2017-10-24T02:27:55.361Z,95.20
2017-10-24T02:30:22.799Z,95.10
2017-10-24T02:32:50.242Z,95.00
2017-10-24T02:35:18.496Z,95.30
2017-10-24T02:37:45.964Z,95.00
2017-10-24T02:40:14.170Z,95.10
2017-10-24T02:42:41.601Z,95.00
2017-10-24T02:45:09.800Z,95.10
2017-10-24T02:47:37.254Z,95.10
2017-10-24T02:50:04.677Z,95.30
2017-10-24T02:52:32.118Z,95.40
2017-10-24T02:54:59.561Z,95.30
2017-10-24T02:57:27.002Z,95.40
2017-10-24T02:59:54.442Z,95.30
2017-10-24T03:02:21.877Z,95.40
2017-10-24T03:04:50.069Z,95.50
2017-10-24T03:07:17.514Z,95.50
2017-10-24T03:09:45.717Z,95.60
2017-10-24T03:12:13.157Z,95.60
2017-10-24T03:14:40.589Z,95.50
2017-10-24T03:17:08.801Z,95.60
2017-10-24T03:19:36.234Z,95.60
2017-10-24T03:22:04.437Z,95.70
2017-10-24T03:24:31.872Z,95.60
2017-10-24T03:26:59.313Z,95.70
2017-10-24T03:29:27.533Z,95.80
2017-10-24T03:31:54.990Z,95.80
2017-10-24T03:34:22.420Z,95.80
2017-10-24T03:36:49.864Z,95.90
2017-10-24T03:39:18.057Z,96.10
2017-10-24T03:41:45.492Z,96.10
2017-10-24T03:44:13.696Z,96.30
2017-10-24T03:46:41.146Z,96.30
2017-10-24T03:49:08.579Z,96.50
2017-10-24T03:51:36.795Z,96.60
2017-10-24T03:54:07.683Z,96.60
2017-10-24T03:56:35.890Z,96.70
2017-10-24T03:59:04.335Z,96.60
2017-10-24T04:01:32.540Z,96.80
2017-10-24T04:03:59.972Z,96.80
2017-10-24T04:06:28.194Z,96.90
2017-10-24T04:08:55.625Z,96.90
2017-10-24T04:11:23.053Z,96.90
2017-10-24T04:13:50.498Z,96.90
2017-10-24T04:16:17.937Z,97.10
2017-10-24T04:18:45.382Z,97.10
2017-10-24T04:21:12.811Z,97.10
2017-10-24T04:23:40.257Z,97.20
2017-10-24T04:26:08.469Z,97.30
2017-10-24T04:28:35.919Z,97.30
2017-10-24T04:31:03.357Z,97.40
2017-10-24T04:33:30.798Z,97.40
2017-10-24T04:35:58.993Z,97.30
2017-10-24T04:38:26.434Z,97.30
2017-10-24T04:40:54.640Z,97.50
2017-10-24T04:43:22.079Z,97.50
2017-10-24T04:45:49.512Z,97.50
2017-10-24T04:48:17.729Z,97.60
2017-10-24T04:50:45.164Z,97.60
2017-10-24T04:53:12.604Z,97.60
2017-10-24T04:55:40.818Z,97.70
2017-10-24T04:58:08.260Z,97.70
2017-10-24T05:00:35.677Z,97.70
2017-10-24T05:03:03.122Z,97.70
2017-10-24T05:05:30.556Z,97.70
2017-10-24T05:07:57.999Z,97.70
2017-10-24T05:10:27.252Z,97.80
2017-10-24T05:12:54.685Z,97.80
2017-10-24T05:15:22.117Z,98.00
2017-10-24T05:17:49.567Z,97.90
2017-10-24T05:20:17.010Z,97.90
2017-10-24T05:22:44.457Z,97.90
2017-10-24T05:25:11.885Z,97.90
2017-10-24T05:27:39.329Z,98.00
2017-10-24T05:30:06.760Z,98.00
2017-10-24T05:32:34.203Z,98.10
2017-10-24T05:35:01.629Z,98.10
2017-10-24T05:37:29.069Z,98.20
2017-10-24T05:39:56.505Z,98.10
2017-10-24T05:42:23.948Z,98.20
2017-10-24T05:44:51.386Z,98.20
2017-10-24T05:47:18.818Z,98.10
2017-10-24T05:49:47.089Z,98.30
2017-10-24T05:52:15.285Z,98.30
2017-10-24T05:54:42.727Z,98.30
2017-10-24T05:57:10.930Z,98.20
2017-10-24T05:59:38.364Z,98.20
2017-10-24T06:02:05.795Z,98.30
2017-10-24T06:04:33.242Z,98.20
2017-10-24T06:07:00.664Z,98.30
2017-10-24T06:09:28.108Z,98.10
2017-10-24T06:11:55.545Z,98.20
2017-10-24T06:14:22.980Z,98.20
2017-10-24T06:16:51.189Z,98.20
2017-10-24T06:19:18.638Z,98.20
2017-10-24T06:21:46.074Z,98.20
2017-10-24T06:24:13.522Z,98.20
2017-10-24T06:26:40.962Z,98.30
2017-10-24T06:29:08.396Z,98.40
2017-10-24T06:31:35.832Z,98.30
2017-10-24T06:34:03.276Z,98.40
2017-10-24T06:36:30.708Z,98.40
2017-10-24T06:38:58.940Z,98.60
2017-10-24T06:41:26.385Z,98.20
2017-10-24T06:43:53.812Z,98.40
2017-10-24T06:46:22.019Z,98.40
2017-10-24T06:48:49.460Z,98.40
2017-10-24T06:51:16.892Z,98.40
2017-10-24T06:53:45.089Z,98.60
2017-10-24T06:56:12.531Z,98.60
2017-10-24T06:58:40.740Z,98.60
2017-10-24T07:01:08.176Z,98.60
2017-10-24T07:03:35.609Z,98.70
2017-10-24T07:06:03.824Z,98.60
2017-10-24T07:08:31.253Z,98.60
2017-10-24T07:10:59.457Z,98.50
2017-10-24T07:13:26.890Z,98.40
2017-10-24T07:15:54.329Z,98.30
2017-10-24T07:18:22.528Z,98.30
2017-10-24T07:20:49.972Z,98.30
2017-10-24T07:23:18.178Z,98.40
2017-10-24T07:25:45.620Z,98.40
2017-10-24T07:28:13.053Z,98.30
2017-10-24T07:30:41.252Z,98.20
2017-10-24T07:33:08.703Z,98.20
2017-10-24T07:35:36.128Z,98.20
2017-10-24T07:38:03.568Z,98.20
2017-10-24T07:40:30.998Z,98.20
2017-10-24T07:42:58.451Z,98.10
2017-10-24T07:45:25.874Z,98.00
2017-10-24T07:47:54.081Z,97.80
2017-10-24T07:50:21.514Z,97.70
2017-10-24T07:52:48.943Z,97.80
2017-10-24T07:55:16.376Z,97.80
2017-10-24T07:57:43.820Z,97.90
2017-10-24T08:00:11.248Z,97.90
2017-10-24T08:02:38.676Z,97.80
2017-10-24T08:05:06.886Z,97.70
2017-10-24T08:07:34.304Z,97.70
2017-10-24T08:10:02.509Z,97.60
2017-10-24T08:12:29.947Z,97.60
2017-10-24T08:14:58.146Z,97.70
2017-10-24T08:17:25.580Z,97.70
2017-10-24T08:19:53.776Z,97.50
2017-10-24T08:22:21.214Z,97.50
2017-10-24T08:24:49.421Z,97.50
2017-10-24T08:27:16.860Z,97.50
2017-10-24T08:29:44.288Z,97.60
2017-10-24T08:32:12.510Z,97.70
2017-10-24T08:34:39.950Z,97.70
2017-10-24T08:37:07.372Z,97.80
2017-10-24T08:39:35.860Z,97.50
2017-10-24T08:42:04.062Z,97.20
2017-10-24T08:44:31.501Z,97.20
2017-10-24T08:46:59.710Z,97.10
2017-10-24T08:49:27.160Z,97.00
2017-10-24T08:51:54.592Z,97.10
2017-10-24T08:54:22.800Z,97.50
2017-10-24T08:56:50.225Z,97.40
2017-10-24T08:59:17.660Z,97.00
2017-10-24T09:01:45.090Z,97.20
2017-10-24T09:04:12.528Z,97.40
2017-10-24T09:06:39.963Z,97.10
2017-10-24T09:12:21.752Z,96.80
2017-10-24T09:14:49.954Z,96.90
2017-10-24T09:17:38.882Z,96.90
2017-10-24T09:20:08.112Z,97.00
2017-10-24T09:22:35.546Z,97.00
2017-10-24T09:25:07.610Z,96.50
2017-10-24T09:27:35.806Z,96.60
2017-10-24T09:30:03.241Z,96.60
2017-10-24T09:32:37.042Z,96.90
2017-10-24T09:35:05.244Z,96.70
2017-10-24T09:37:32.673Z,96.70
2017-10-24T09:40:00.884Z,96.90
2017-10-24T09:42:28.313Z,96.80
2017-10-24T09:44:56.523Z,96.30
2017-10-24T09:47:23.958Z,96.30
2017-10-24T09:49:57.195Z,96.40
2017-10-24T09:52:25.380Z,96.40
2017-10-24T09:54:52.829Z,96.40
2017-10-24T09:57:20.260Z,95.90
2017-10-24T09:59:47.705Z,95.70
2017-10-24T10:02:15.131Z,95.60
2017-10-24T10:04:43.338Z,95.50
2017-10-24T10:07:10.768Z,95.20
2017-10-24T10:09:38.964Z,95.50
2017-10-24T10:12:09.367Z,95.50
2017-10-24T10:14:36.792Z,95.50
2017-10-24T10:17:04.217Z,95.10
2017-10-24T10:19:31.661Z,95.00
2017-10-24T10:21:59.089Z,94.70
2017-10-24T10:24:43.081Z,94.40
2017-10-24T10:27:10.518Z,94.40
2017-10-24T10:29:37.936Z,94.80
2017-10-24T10:32:05.368Z,95.10
2017-10-24T10:34:32.824Z,95.10
2017-10-24T10:37:00.277Z,94.80
2017-10-24T10:39:27.711Z,94.80
2017-10-24T10:41:55.139Z,94.50
2017-10-24T10:44:23.351Z,94.70
2017-10-24T10:46:50.786Z,94.60
2017-10-24T10:49:18.217Z,94.70
2017-10-24T10:51:46.412Z,94.30
2017-10-24T10:54:13.840Z,94.00
2017-10-24T10:56:41.280Z,94.40
2017-10-24T10:59:08.704Z,94.60
2017-10-24T11:01:36.141Z,93.90
2017-10-24T11:04:03.570Z,94.10
2017-10-24T11:06:31.041Z,94.10
2017-10-24T11:08:58.450Z,94.00
2017-10-24T11:11:25.896Z,93.70
2017-10-24T11:13:53.303Z,94.00
2017-10-24T11:16:21.509Z,93.30
2017-10-24T11:18:48.941Z,93.30
2017-10-24T11:21:17.136Z,93.70
2017-10-24T11:23:44.553Z,93.70
2017-10-24T11:26:11.992Z,93.80
2017-10-24T11:28:39.420Z,93.90
2017-10-24T11:31:06.856Z,93.60
2017-10-24T11:33:34.281Z,93.70
2017-10-24T11:36:01.716Z,93.60
2017-10-24T11:38:29.152Z,93.60
2017-10-24T11:40:56.584Z,93.50
2017-10-24T11:43:24.004Z,93.40
2017-10-24T11:45:51.437Z,93.50
2017-10-24T11:48:18.871Z,93.50
2017-10-24T11:50:46.300Z,93.50
2017-10-24T11:53:14.506Z,93.50
2017-10-24T11:55:41.928Z,93.50
2017-10-24T11:58:10.137Z,93.40
2017-10-24T12:00:37.577Z,93.40
2017-10-24T12:03:05.013Z,93.00
2017-10-24T12:05:33.817Z,93.30
2017-10-24T12:08:01.258Z,93.30
2017-10-24T12:10:30.447Z,93.70
2017-10-24T12:12:57.879Z,93.70
2017-10-24T12:15:25.310Z,93.50
2017-10-24T12:17:52.740Z,93.50
2017-10-24T12:20:20.170Z,93.50
2017-10-24T12:22:47.600Z,93.50
2017-10-24T12:25:15.026Z,93.20
2017-10-24T12:27:42.465Z,93.50
2017-10-24T12:30:10.666Z,92.80
2017-10-24T12:32:38.102Z,92.80
2017-10-24T12:35:05.526Z,92.20
2017-10-24T12:37:32.965Z,92.10
2017-10-24T12:40:00.434Z,91.80
2017-10-24T12:42:30.305Z,91.70
2017-10-24T12:45:12.425Z,92.00
2017-10-24T12:47:39.859Z,91.80
2017-10-24T12:50:21.006Z,92.00
2017-10-24T12:52:49.212Z,92.00
2017-10-24T12:55:16.637Z,92.00
2017-10-24T12:57:44.839Z,92.40
2017-10-24T13:00:12.712Z,92.40
2017-10-24T13:02:40.155Z,92.30
2017-10-24T13:05:10.165Z,91.90
2017-10-24T13:07:37.608Z,92.30
2017-10-24T13:10:05.800Z,92.50
2017-10-24T13:12:33.261Z,92.50
2017-10-24T13:15:00.690Z,92.80
2017-10-24T13:17:28.886Z,92.30
2017-10-24T13:19:56.316Z,92.30
2017-10-24T13:22:24.508Z,92.60
2017-10-24T13:24:51.949Z,92.60
2017-10-24T13:27:19.382Z,92.30
2017-10-24T13:29:46.833Z,92.30
2017-10-24T13:32:14.252Z,92.20
2017-10-24T13:34:41.676Z,91.60
2017-10-24T13:37:09.877Z,90.60
2017-10-24T13:39:37.309Z,90.50
2017-10-24T13:42:05.504Z,90.70
2017-10-24T13:44:32.943Z,90.70
2017-10-24T13:47:01.155Z,90.10
2017-10-24T13:49:28.611Z,90.10
2017-10-24T13:51:56.040Z,89.90
2017-10-24T13:54:24.370Z,90.40
2017-10-24T13:56:51.791Z,90.30
2017-10-24T13:59:19.241Z,90.20
2017-10-24T14:01:46.689Z,90.90
2017-10-24T14:04:20.525Z,90.90
2017-10-24T14:06:53.714Z,90.90
2017-10-24T14:09:26.876Z,90.50
2017-10-24T14:11:54.316Z,90.30
2017-10-24T14:14:22.525Z,90.00
2017-10-24T14:16:49.969Z,90.00
2017-10-24T14:19:17.396Z,90.50
2017-10-24T14:21:44.869Z,90.20
2017-10-24T14:24:13.064Z,90.90
2017-10-24T14:26:40.522Z,90.90
2017-10-24T14:29:08.027Z,90.40
2017-10-24T14:31:35.463Z,90.40
2017-10-24T14:34:02.904Z,90.10
2017-10-24T14:36:30.328Z,90.30
2017-10-24T14:38:58.538Z,90.00
2017-10-24T14:41:25.966Z,90.00
2017-10-24T14:43:54.168Z,90.00
2017-10-24T14:46:21.601Z,90.00
2017-10-24T14:48:49.814Z,90.30
2017-10-24T14:51:17.245Z,90.30
2017-10-24T14:53:44.680Z,90.20
2017-10-24T14:56:12.877Z,90.60
2017-10-24T14:58:40.325Z,90.60
2017-10-24T15:01:07.829Z,90.20
2017-10-24T15:03:35.281Z,90.50
2017-10-24T15:06:02.794Z,90.40
2017-10-24T15:08:31.136Z,90.50
2017-10-24T15:10:58.555Z,90.50
2017-10-24T15:13:25.992Z,90.50
2017-10-24T15:15:53.447Z,90.60
2017-10-24T15:18:21.629Z,91.10
2017-10-24T15:20:49.064Z,91.10
2017-10-24T15:23:17.253Z,91.10
2017-10-24T15:25:44.866Z,91.10
2017-10-24T15:28:12.276Z,90.80
2017-10-24T15:30:39.721Z,90.80
2017-10-24T15:33:07.913Z,91.00
2017-10-24T15:35:36.400Z,91.00
2017-10-24T15:38:04.833Z,91.20
2017-10-24T15:40:32.266Z,90.80
2017-10-24T15:42:59.701Z,91.00
2017-10-24T15:45:27.129Z,91.10
2017-10-24T15:47:59.051Z,91.00
2017-10-24T15:50:26.473Z,91.00
2017-10-24T15:52:53.973Z,91.10
2017-10-24T15:55:21.407Z,91.00
2017-10-24T15:57:48.909Z,91.10
2017-10-24T16:00:17.105Z,91.40
2017-10-24T16:02:44.736Z,91.40
2017-10-24T16:05:12.941Z,91.60
2017-10-24T16:07:40.401Z,91.60
2017-10-24T16:10:07.823Z,91.70
2017-10-24T16:12:35.248Z,91.80
2017-10-24T16:15:02.688Z,92.10
2017-10-24T16:17:30.123Z,92.20
2017-10-24T16:19:57.566Z,92.30
2017-10-24T16:22:25.758Z,92.40
2017-10-24T16:24:53.194Z,92.40
2017-10-24T16:27:22.500Z,92.60
2017-10-24T16:29:50.754Z,92.60
2017-10-24T16:32:18.184Z,92.60
2017-10-24T16:34:45.620Z,93.10
2017-10-24T16:37:13.059Z,93.10
2017-10-24T16:39:40.600Z,93.50
2017-10-24T16:42:08.792Z,94.50
2017-10-24T16:44:36.326Z,94.50
2017-10-24T16:47:06.544Z,95.00
2017-10-24T16:49:36.210Z,95.00
2017-10-24T16:52:03.839Z,94.70
2017-10-24T16:54:31.416Z,95.30
2017-10-24T16:57:03.942Z,95.40
2017-10-24T16:59:32.533Z,95.60
2017-10-24T17:02:00.022Z,95.70
2017-10-24T17:04:31.237Z,96.50
2017-10-24T17:06:58.717Z,96.10
2017-10-24T17:09:27.165Z,96.30
2017-10-24T17:11:54.621Z,96.40
2017-10-24T17:14:22.060Z,96.60
2017-10-24T17:16:49.496Z,96.60
2017-10-24T17:19:16.924Z,96.60
2017-10-24T17:21:44.361Z,96.70
2017-10-24T17:24:12.565Z,97.00
2017-10-24T17:26:40.049Z,97.00
2017-10-24T17:29:08.256Z,97.10
2017-10-24T17:31:35.718Z,96.90
2017-10-24T17:34:03.160Z,97.20
2017-10-24T17:36:30.588Z,97.00
2017-10-24T17:38:58.039Z,97.10
2017-10-24T17:41:25.481Z,97.10
2017-10-24T17:43:52.917Z,97.20
2017-10-24T17:46:21.154Z,97.50
2017-10-24T17:48:48.585Z,97.50
2017-10-24T17:51:16.016Z,97.50
2017-10-24T17:53:43.646Z,97.50
2017-10-24T17:56:12.211Z,97.60
2017-10-24T17:58:39.642Z,97.60
2017-10-24T18:01:07.110Z,97.80
2017-10-24T18:03:34.556Z,97.90
2017-10-24T18:06:01.985Z,97.90
2017-10-24T18:08:30.222Z,98.20
2017-10-24T18:10:57.653Z,98.20
2017-10-24T18:13:25.084Z,98.40
2017-10-24T18:15:53.053Z,98.60
2017-10-24T18:18:20.481Z,98.70
2017-10-24T18:20:48.912Z,99.00
2017-10-24T18:23:16.351Z,98.60
2017-10-24T18:25:43.781Z,98.60
2017-10-24T18:28:11.225Z,98.70
2017-10-24T18:30:40.636Z,98.70
2017-10-24T18:33:08.825Z,98.70
2017-10-24T18:35:37.038Z,98.70
2017-10-24T18:38:04.468Z,98.70
2017-10-24T18:40:31.913Z,98.80
2017-10-24T18:43:00.117Z,99.00
2017-10-24T18:45:27.545Z,98.90
2017-10-24T18:47:55.765Z,99.10
2017-10-24T18:50:23.189Z,99.10
2017-10-24T18:52:50.620Z,99.40
2017-10-24T18:55:18.832Z,99.20
2017-10-24T18:57:46.270Z,99.20
2017-10-24T19:00:13.700Z,99.10
2017-10-24T19:02:45.873Z,99.00
2017-10-24T19:05:14.074Z,99.00
2017-10-24T19:07:41.507Z,99.00
2017-10-24T19:10:09.713Z,99.20
2017-10-24T19:12:37.154Z,99.00
2017-10-24T19:15:05.337Z,98.90
2017-10-24T19:17:32.786Z,98.90
2017-10-24T19:20:00.980Z,99.10
2017-10-24T19:22:28.400Z,99.10
2017-10-24T19:24:56.616Z,99.00
2017-10-24T19:27:24.052Z,99.00
2017-10-24T19:29:51.493Z,99.10
2017-10-24T19:32:19.688Z,99.00
2017-10-24T19:34:47.126Z,99.00
2017-10-24T19:37:15.312Z,99.10
2017-10-24T19:39:42.757Z,99.10
2017-10-24T19:42:10.968Z,99.00
2017-10-24T19:44:38.398Z,99.00
2017-10-24T19:47:05.844Z,99.00
2017-10-24T19:49:34.108Z,98.90
2017-10-24T19:52:01.573Z,98.90
2017-10-24T19:54:29.773Z,99.00
2017-10-24T19:56:59.672Z,99.00
2017-10-24T19:59:30.810Z,99.00
2017-10-24T20:01:59.025Z,98.90
2017-10-24T20:04:26.466Z,98.90
2017-10-24T20:06:53.901Z,98.80
2017-10-24T20:09:22.161Z,98.90
2017-10-24T20:11:49.600Z,98.90
2017-10-24T20:14:17.037Z,98.90
2017-10-24T20:16:44.482Z,98.90
2017-10-24T20:19:11.922Z,98.90
2017-10-24T20:21:39.358Z,98.70
2017-10-24T20:24:08.658Z,98.90
2017-10-24T20:26:36.865Z,98.80
2017-10-24T20:29:04.297Z,98.80
2017-10-24T20:31:31.748Z,98.70
2017-10-24T20:33:59.963Z,98.60
2017-10-24T20:36:28.406Z,98.90
2017-10-24T20:38:56.661Z,98.60
2017-10-24T20:41:24.093Z,98.60
2017-10-24T20:43:51.581Z,98.50
2017-10-24T20:46:20.893Z,98.80
2017-10-24T20:48:53.700Z,98.50
2017-10-24T20:51:21.150Z,98.50
2017-10-24T20:53:49.350Z,98.50
2017-10-24T20:56:16.781Z,98.50
2017-10-24T20:58:44.217Z,98.50
2017-10-24T21:01:12.412Z,98.60
2017-10-24T21:03:39.849Z,98.60
2017-10-24T21:06:08.044Z,98.40
2017-10-24T21:08:35.521Z,98.40
2017-10-24T21:11:03.030Z,98.40
2017-10-24T21:13:30.475Z,98.60
2017-10-24T21:15:57.909Z,98.60
2017-10-24T21:18:25.347Z,98.60
2017-10-24T21:20:52.785Z,98.60
2017-10-24T21:23:20.233Z,98.70
2017-10-24T21:25:48.435Z,98.70
2017-10-24T21:28:15.869Z,98.70
2017-10-24T21:30:43.312Z,98.70
2017-10-24T21:33:11.580Z,98.80
2017-10-24T21:35:39.787Z,98.70
2017-10-24T21:38:07.224Z,98.70
2017-10-24T21:40:35.428Z,98.70
2017-10-24T21:43:02.861Z,98.70
2017-10-24T21:45:31.063Z,98.60
2017-10-24T21:47:58.497Z,98.60
2017-10-24T21:50:25.937Z,98.60
2017-10-24T21:52:54.150Z,98.60
2017-10-24T21:55:21.580Z,98.50
2017-10-24T21:57:49.788Z,98.50
2017-10-24T22:00:32.089Z,98.50
2017-10-24T22:02:59.523Z,98.70
2017-10-24T22:05:26.974Z,98.50
2017-10-24T22:07:55.180Z,98.50
2017-10-24T22:10:22.616Z,98.50
2017-10-24T22:12:50.065Z,98.50
2017-10-24T22:15:17.499Z,98.40
2017-10-24T22:17:44.937Z,98.40
2017-10-24T22:20:12.413Z,98.30
2017-10-24T22:22:39.854Z,98.30
2017-10-24T22:25:07.293Z,98.30
2017-10-24T22:27:34.733Z,98.20
2017-10-24T22:30:02.156Z,98.10
2017-10-24T22:32:30.422Z,98.00
2017-10-24T22:34:57.832Z,98.00
2017-10-24T22:37:25.262Z,98.00
2017-10-24T22:39:52.693Z,98.00
2017-10-24T22:42:20.885Z,98.10
2017-10-24T22:44:48.325Z,98.10
2017-10-24T22:47:16.525Z,98.20
2017-10-24T22:49:43.974Z,98.20
2017-10-24T22:52:11.433Z,98.20
2017-10-24T22:54:39.620Z,98.20
2017-10-24T22:57:07.048Z,98.20
2017-10-24T22:59:34.499Z,98.20
2017-10-24T23:02:01.917Z,98.20
2017-10-24T23:04:29.356Z,98.20
2017-10-24T23:06:56.913Z,98.30
2017-10-24T23:09:24.325Z,98.30
2017-10-24T23:11:53.530Z,98.60
2017-10-24T23:14:21.738Z,98.70
2017-10-24T23:16:49.182Z,98.70
2017-10-24T23:19:17.374Z,98.70
2017-10-24T23:21:44.801Z,98.70
2017-10-24T23:24:13.004Z,98.80
2017-10-24T23:26:40.450Z,98.80
2017-10-24T23:29:07.894Z,98.80
2017-10-24T23:31:35.326Z,98.70
2017-10-24T23:34:02.792Z,98.70
2017-10-24T23:36:30.234Z,98.80
2017-10-24T23:38:57.672Z,98.90
2017-10-24T23:41:25.100Z,98.90
2017-10-24T23:43:52.541Z,98.90
2017-10-24T23:46:19.990Z,99.00
2017-10-24T23:48:47.421Z,98.90
2017-10-24T23:51:14.849Z,99.10
2017-10-24T23:53:42.298Z,99.40
2017-10-24T23:56:09.723Z,99.10
2017-10-24T23:58:37.169Z,99.10
